createdAt,value
2018-05-07T00:00:36.782Z,4.97
2018-05-07T00:03:03.105Z,4.75
2018-05-07T00:05:29.598Z,4.75
2018-05-07T00:07:55.938Z,4.87
2018-05-07T00:10:22.300Z,4.62
2018-05-07T00:12:48.590Z,4.50
2018-05-07T00:15:15.608Z,5.10
2018-05-07T00:17:42.808Z,5.28
2018-05-07T00:20:09.126Z,4.82
2018-05-07T00:22:36.439Z,4.60
2018-05-07T00:25:03.556Z,4.70
2018-05-07T00:27:29.872Z,4.87
2018-05-07T00:29:57.021Z,4.80
2018-05-07T00:32:23.339Z,5.30
2018-05-07T00:34:50.460Z,4.35
2018-05-07T00:37:17.522Z,4.80
2018-05-07T00:39:43.903Z,5.28
2018-05-07T00:42:10.322Z,5.18
2018-05-07T00:44:36.638Z,4.62
2018-05-07T00:47:03.683Z,5.47
2018-05-07T00:49:30.948Z,5.40
2018-05-07T00:51:57.994Z,5.07
2018-05-07T00:54:25.744Z,4.90
2018-05-07T00:56:52.932Z,5.05
2018-05-07T00:59:19.277Z,4.68
2018-05-07T01:01:45.602Z,5.07
2018-05-07T01:04:11.874Z,4.82
2018-05-07T01:06:38.140Z,4.72
2018-05-07T01:09:05.132Z,5.60
2018-05-07T01:11:31.381Z,4.93
2018-05-07T01:13:57.696Z,5.68
2018-05-07T01:16:23.972Z,4.78
2018-05-07T01:18:56.504Z,4.75
2018-05-07T01:21:22.826Z,4.83
2018-05-07T01:23:50.203Z,5.47
2018-05-07T01:26:16.648Z,5.22
2018-05-07T01:28:43.744Z,5.50
2018-05-07T01:31:10.151Z,5.22
2018-05-07T01:33:37.295Z,4.70
2018-05-07T01:36:04.371Z,5.17
2018-05-07T01:38:31.404Z,5.07
2018-05-07T01:40:58.469Z,5.97
2018-05-07T01:43:24.861Z,5.62
2018-05-07T01:45:51.183Z,5.45
2018-05-07T01:48:19.021Z,4.80
2018-05-07T01:50:46.583Z,4.82
2018-05-07T01:53:12.943Z,5.80
2018-05-07T01:55:39.610Z,5.13
2018-05-07T01:58:06.807Z,5.33
2018-05-07T02:00:33.153Z,5.28
2018-05-07T02:02:59.500Z,5.55
2018-05-07T02:05:25.861Z,5.77
2018-05-07T02:07:52.211Z,5.43
2018-05-07T02:10:18.499Z,5.17
2018-05-07T02:12:44.787Z,5.37
2018-05-07T02:15:11.067Z,5.60
2018-05-07T02:17:37.369Z,5.20
2018-05-07T02:20:03.750Z,5.30
2018-05-07T02:22:30.085Z,5.47
2018-05-07T02:24:56.471Z,5.30
2018-05-07T02:27:22.784Z,5.10
2018-05-07T02:29:49.882Z,5.43
2018-05-07T02:32:20.311Z,5.20
2018-05-07T02:34:46.636Z,4.95
2018-05-07T02:37:12.965Z,5.17
2018-05-07T02:39:39.305Z,5.47
2018-05-07T02:42:05.635Z,5.20
2018-05-07T02:44:32.006Z,5.32
2018-05-07T02:46:58.288Z,5.37
2018-05-07T02:49:24.618Z,5.30
2018-05-07T02:51:51.073Z,4.43
2018-05-07T02:54:17.541Z,5.00
2018-05-07T02:56:43.888Z,5.30
2018-05-07T02:59:10.930Z,5.17
2018-05-07T03:01:37.215Z,4.50
2018-05-07T03:04:03.537Z,5.20
2018-05-07T03:06:29.857Z,5.20
2018-05-07T03:08:56.233Z,5.03
2018-05-07T03:11:22.566Z,4.90
2018-05-07T03:13:48.926Z,4.90
2018-05-07T03:16:16.025Z,5.40
2018-05-07T03:18:42.413Z,4.57
2018-05-07T03:21:08.867Z,5.00
2018-05-07T03:23:35.168Z,5.47
2018-05-07T03:26:02.331Z,4.43
2018-05-07T03:28:28.711Z,4.57
2018-05-07T03:30:54.987Z,4.50
2018-05-07T03:33:21.293Z,4.93
2018-05-07T03:35:47.612Z,4.63
2018-05-07T03:38:14.018Z,4.97
2018-05-07T03:40:40.381Z,4.53
2018-05-07T03:43:06.645Z,4.30
2018-05-07T03:45:32.994Z,5.30
2018-05-07T03:47:59.344Z,4.73
2018-05-07T03:50:25.707Z,5.17
2018-05-07T03:52:52.093Z,4.37
2018-05-07T03:55:18.479Z,4.83
2018-05-07T03:57:44.827Z,5.17
2018-05-07T04:00:11.253Z,5.00
2018-05-07T04:02:37.665Z,4.70
2018-05-07T04:05:04.008Z,4.87
2018-05-07T04:07:30.416Z,4.50
2018-05-07T04:09:56.707Z,5.17
2018-05-07T04:12:23.052Z,4.60
2018-05-07T04:14:49.454Z,4.70
2018-05-07T04:17:15.772Z,5.10
2018-05-07T04:19:42.333Z,4.37
2018-05-07T04:22:08.762Z,4.10
2018-05-07T04:24:35.844Z,4.87
2018-05-07T04:27:02.920Z,5.33
2018-05-07T04:29:29.258Z,4.67
2018-05-07T04:31:55.756Z,4.97
2018-05-07T04:34:22.803Z,4.20
2018-05-07T04:36:49.123Z,5.30
2018-05-07T04:39:15.500Z,5.00
2018-05-07T04:41:42.605Z,4.63
2018-05-07T04:44:09.119Z,5.10
2018-05-07T04:46:35.444Z,4.53
2018-05-07T04:49:01.728Z,4.33
2018-05-07T04:51:27.993Z,4.13
2018-05-07T04:53:55.042Z,4.27
2018-05-07T04:56:21.412Z,4.73
2018-05-07T04:58:47.843Z,3.93
2018-05-07T05:01:14.222Z,4.57
2018-05-07T05:03:41.335Z,4.33
2018-05-07T05:06:07.699Z,4.13
2018-05-07T05:08:34.789Z,4.30
2018-05-07T05:11:01.122Z,4.40
2018-05-07T05:13:27.484Z,4.40
2018-05-07T05:15:53.773Z,4.07
2018-05-07T05:18:20.087Z,4.10
2018-05-07T05:20:46.462Z,3.60
2018-05-07T05:23:12.767Z,4.27
2018-05-07T05:25:39.155Z,3.80
2018-05-07T05:28:05.500Z,3.77
2018-05-07T05:30:31.881Z,3.87
2018-05-07T05:32:58.307Z,3.17
2018-05-07T05:35:24.657Z,3.87
2018-05-07T05:37:50.965Z,3.80
2018-05-07T05:40:17.396Z,4.10
2018-05-07T05:42:43.751Z,4.00
2018-05-07T05:45:10.200Z,3.30
2018-05-07T05:47:36.495Z,3.03
2018-05-07T05:50:02.885Z,3.77
2018-05-07T05:52:29.198Z,3.40
2018-05-07T05:54:55.588Z,3.60
2018-05-07T05:57:22.016Z,3.07
2018-05-07T05:59:48.652Z,3.40
2018-05-07T06:02:15.045Z,2.90
2018-05-07T06:04:41.379Z,3.63
2018-05-07T06:07:07.717Z,3.20
2018-05-07T06:09:34.119Z,3.03
2018-05-07T06:12:00.606Z,3.37
2018-05-07T06:14:27.038Z,2.60
2018-05-07T06:16:53.778Z,2.57
2018-05-07T06:19:20.987Z,3.00
2018-05-07T06:21:47.598Z,3.07
2018-05-07T06:24:16.377Z,2.67
2018-05-07T06:26:43.170Z,3.60
2018-05-07T06:29:09.511Z,2.87
2018-05-07T06:31:35.897Z,3.23
2018-05-07T06:34:02.402Z,3.23
2018-05-07T06:36:28.744Z,3.53
2018-05-07T06:38:55.807Z,3.20
2018-05-07T06:41:22.211Z,2.72
2018-05-07T06:43:49.153Z,2.50
2018-05-07T06:46:15.502Z,2.50
2018-05-07T06:48:42.632Z,2.65
2018-05-07T06:51:09.040Z,2.50
2018-05-07T06:53:35.336Z,2.60
2018-05-07T06:56:02.573Z,2.33
2018-05-07T06:58:28.927Z,2.50
2018-05-07T07:00:55.377Z,2.40
2018-05-07T07:03:21.985Z,2.27
2018-05-07T07:05:49.154Z,2.50
2018-05-07T07:08:15.714Z,2.40
2018-05-07T07:10:42.028Z,2.40
2018-05-07T07:13:08.466Z,2.08
2018-05-07T07:15:35.549Z,2.47
2018-05-07T07:18:01.877Z,2.53
2018-05-07T07:20:28.212Z,2.40
2018-05-07T07:22:54.563Z,2.20
2018-05-07T07:25:21.573Z,2.40
2018-05-07T07:27:47.921Z,2.65
2018-05-07T07:30:15.999Z,2.20
2018-05-07T07:32:42.408Z,2.33
2018-05-07T07:35:08.819Z,2.28
2018-05-07T07:37:35.906Z,2.90
2018-05-07T07:40:02.322Z,2.53
2018-05-07T07:42:28.625Z,2.12
2018-05-07T07:44:54.925Z,2.20
2018-05-07T07:47:21.406Z,2.33
2018-05-07T07:49:47.701Z,2.30
2018-05-07T07:52:14.797Z,2.20
2018-05-07T07:54:42.069Z,2.17
2018-05-07T07:57:08.420Z,2.30
2018-05-07T07:59:34.802Z,2.22
2018-05-07T08:02:01.861Z,2.10
2018-05-07T08:04:28.232Z,2.22
2018-05-07T08:06:54.547Z,2.25
2018-05-07T08:09:20.875Z,2.12
2018-05-07T08:11:47.215Z,2.00
2018-05-07T08:14:13.625Z,1.90
2018-05-07T08:16:39.961Z,2.58
2018-05-07T08:19:07.739Z,2.10
2018-05-07T08:21:34.147Z,2.30
2018-05-07T08:24:01.211Z,2.30
2018-05-07T08:26:28.543Z,2.22
2018-05-07T08:28:56.014Z,1.92
2018-05-07T08:31:35.158Z,2.30
2018-05-07T08:34:12.266Z,1.65
2018-05-07T08:36:38.753Z,2.22
2018-05-07T08:39:05.075Z,1.80
2018-05-07T08:41:31.396Z,1.90
2018-05-07T08:43:57.729Z,2.08
2018-05-07T08:46:24.092Z,2.00
2018-05-07T08:48:51.136Z,1.90
2018-05-07T08:51:17.476Z,1.87
2018-05-07T08:53:43.774Z,1.67
2018-05-07T08:56:10.350Z,1.60
2018-05-07T08:58:36.763Z,1.98
2018-05-07T09:01:03.089Z,1.70
2018-05-07T09:03:29.425Z,1.75
2018-05-07T09:05:56.482Z,1.80
2018-05-07T09:08:22.744Z,1.50
2018-05-07T09:10:49.081Z,1.62
2018-05-07T09:13:16.174Z,1.40
2018-05-07T09:15:42.494Z,2.08
2018-05-07T09:18:08.865Z,2.20
2018-05-07T09:20:35.219Z,1.60
2018-05-07T09:23:01.556Z,1.55
2018-05-07T09:25:28.691Z,1.42
2018-05-07T09:27:55.055Z,1.80
2018-05-07T09:30:21.448Z,1.70
2018-05-07T09:32:47.731Z,1.67
2018-05-07T09:35:14.024Z,1.52
2018-05-07T09:37:41.283Z,1.67
2018-05-07T09:40:08.334Z,2.00
2018-05-07T09:42:34.645Z,2.10
2018-05-07T09:45:00.995Z,1.87
2018-05-07T09:47:27.301Z,2.33
2018-05-07T09:49:53.614Z,2.45
2018-05-07T09:52:19.941Z,1.90
2018-05-07T09:54:46.246Z,2.05
2018-05-07T09:57:12.530Z,2.20
2018-05-07T09:59:38.828Z,1.80
2018-05-07T10:02:05.186Z,2.12
2018-05-07T10:04:31.551Z,2.25
2018-05-07T10:06:58.639Z,2.20
2018-05-07T10:09:24.940Z,2.20
2018-05-07T10:11:51.227Z,1.75
2018-05-07T10:14:17.614Z,1.90
2018-05-07T10:16:43.913Z,1.90
2018-05-07T10:19:11.423Z,1.80
2018-05-07T10:21:38.438Z,1.83
2018-05-07T10:24:05.544Z,1.92
2018-05-07T10:26:32.546Z,1.85
2018-05-07T10:28:58.916Z,1.75
2018-05-07T10:31:25.496Z,1.77
2018-05-07T10:36:44.123Z,1.85
2018-05-07T10:39:11.186Z,1.98
2018-05-07T10:41:37.476Z,2.15
2018-05-07T10:44:04.674Z,2.05
2018-05-07T10:46:31.038Z,1.90
2018-05-07T10:48:57.415Z,1.98
2018-05-07T10:51:24.432Z,1.90
2018-05-07T10:53:52.359Z,2.00
2018-05-07T10:56:18.745Z,1.85
2018-05-07T10:58:45.921Z,2.05
2018-05-07T11:01:12.260Z,1.83
2018-05-07T11:03:38.695Z,2.20
2018-05-07T11:06:04.986Z,1.48
2018-05-07T11:08:31.313Z,1.75
2018-05-07T11:10:58.344Z,2.12
2018-05-07T11:13:24.748Z,1.65
2018-05-07T11:15:51.262Z,1.65
2018-05-07T11:18:17.602Z,1.80
2018-05-07T11:20:44.838Z,1.92
2018-05-07T11:23:11.944Z,1.90
2018-05-07T11:25:38.296Z,1.70
2018-05-07T11:28:05.410Z,1.67
2018-05-07T11:30:32.473Z,1.55
2018-05-07T11:32:58.821Z,1.55
2018-05-07T11:35:25.122Z,1.83
2018-05-07T11:37:51.499Z,1.40
2018-05-07T11:40:17.817Z,1.80
2018-05-07T11:42:44.153Z,1.50
2018-05-07T11:45:11.021Z,2.22
2018-05-07T11:47:38.142Z,1.45
2018-05-07T11:50:04.435Z,1.58
2018-05-07T11:52:30.865Z,1.15
2018-05-07T11:54:57.304Z,1.70
2018-05-07T11:57:23.696Z,1.60
2018-05-07T11:59:50.527Z,1.70
2018-05-07T12:02:17.235Z,1.45
2018-05-07T12:04:43.758Z,1.20
2018-05-07T12:07:10.066Z,1.75
2018-05-07T12:09:36.502Z,1.35
2018-05-07T12:12:03.534Z,1.83
2018-05-07T12:14:31.024Z,1.50
2018-05-07T12:16:57.363Z,1.40
2018-05-07T12:19:23.630Z,1.77
2018-05-07T12:21:50.157Z,1.65
2018-05-07T12:24:16.738Z,1.90
2018-05-07T12:26:43.072Z,1.67
2018-05-07T12:29:09.441Z,2.05
2018-05-07T12:31:36.556Z,1.30
2018-05-07T12:34:02.847Z,1.80
2018-05-07T12:36:29.262Z,1.98
2018-05-07T12:38:55.536Z,2.03
2018-05-07T12:41:21.981Z,1.85
2018-05-07T12:43:48.398Z,1.92
2018-05-07T12:46:14.749Z,2.10
2018-05-07T12:48:42.078Z,2.22
2018-05-07T12:51:08.674Z,2.35
2018-05-07T12:53:35.026Z,2.10
2018-05-07T12:56:01.340Z,2.12
2018-05-07T12:58:28.504Z,2.10
2018-05-07T13:00:54.813Z,2.22
2018-05-07T13:03:21.225Z,2.20
2018-05-07T13:05:47.594Z,2.08
2018-05-07T13:08:13.970Z,2.20
2018-05-07T13:10:40.296Z,2.17
2018-05-07T13:13:06.640Z,2.30
2018-05-07T13:15:33.005Z,2.55
2018-05-07T13:18:00.095Z,2.90
2018-05-07T13:20:26.577Z,2.75
2018-05-07T13:22:52.961Z,3.85
2018-05-07T13:25:19.475Z,3.80
2018-05-07T13:27:45.845Z,3.08
2018-05-07T13:30:12.417Z,3.60
2018-05-07T13:32:38.747Z,3.35
2018-05-07T13:35:05.743Z,3.15
2018-05-07T13:37:32.023Z,2.97
2018-05-07T13:39:58.358Z,3.03
2018-05-07T13:42:25.446Z,3.40
2018-05-07T13:44:52.456Z,3.20
2018-05-07T13:47:18.785Z,2.62
2018-05-07T13:49:45.179Z,2.97
2018-05-07T13:52:11.611Z,2.85
2018-05-07T13:54:37.955Z,2.72
2018-05-07T13:57:04.274Z,2.87
2018-05-07T13:59:30.584Z,2.70
2018-05-07T14:01:57.082Z,2.92
2018-05-07T14:04:23.374Z,2.85
2018-05-07T14:06:49.707Z,2.92
2018-05-07T14:09:16.748Z,2.87
2018-05-07T14:11:43.772Z,2.95
2018-05-07T14:14:10.097Z,2.90
2018-05-07T14:16:36.471Z,3.20
2018-05-07T14:19:03.517Z,3.05
2018-05-07T14:21:30.591Z,2.97
2018-05-07T14:23:57.010Z,2.92
2018-05-07T14:26:23.446Z,3.12
2018-05-07T14:28:49.850Z,3.28
2018-05-07T14:31:16.204Z,3.12
2018-05-07T14:33:43.366Z,2.92
2018-05-07T14:36:09.680Z,3.20
2018-05-07T14:38:36.762Z,2.62
2018-05-07T14:41:03.627Z,2.78
2018-05-07T14:43:31.492Z,2.87
2018-05-07T14:45:57.911Z,3.35
2018-05-07T14:48:25.043Z,3.50
2018-05-07T14:50:51.381Z,3.22
2018-05-07T14:53:17.747Z,3.12
2018-05-07T14:55:44.143Z,3.33
2018-05-07T14:58:11.403Z,3.03
2018-05-07T15:00:37.743Z,3.03
2018-05-07T15:03:04.028Z,2.58
2018-05-07T15:05:31.123Z,2.75
2018-05-07T15:07:57.632Z,2.72
2018-05-07T15:10:24.039Z,2.42
2018-05-07T15:12:52.519Z,2.67
2018-05-07T15:15:18.979Z,2.45
2018-05-07T15:17:46.061Z,2.42
2018-05-07T15:20:12.371Z,2.40
2018-05-07T15:22:38.714Z,2.25
2018-05-07T15:25:05.089Z,2.35
2018-05-07T15:27:32.002Z,2.50
2018-05-07T15:29:58.346Z,2.28
2018-05-07T15:32:24.696Z,2.65
2018-05-07T15:34:51.088Z,2.03
2018-05-07T15:37:18.084Z,2.40
2018-05-07T15:39:44.432Z,2.12
2018-05-07T15:42:10.836Z,2.33
2018-05-07T15:44:37.180Z,2.25
2018-05-07T15:47:03.788Z,2.50
2018-05-07T15:49:30.144Z,2.17
2018-05-07T15:51:56.471Z,2.30
2018-05-07T15:54:22.860Z,2.05
2018-05-07T15:56:49.174Z,2.35
2018-05-07T15:59:16.123Z,1.80
2018-05-07T16:01:42.507Z,2.37
2018-05-07T16:04:08.779Z,2.37
2018-05-07T16:06:36.446Z,2.15
2018-05-07T16:09:02.744Z,2.00
2018-05-07T16:11:29.757Z,2.08
2018-05-07T16:13:56.756Z,2.30
2018-05-07T16:16:23.024Z,2.10
2018-05-07T16:18:49.357Z,2.28
2018-05-07T16:21:16.383Z,1.83
2018-05-07T16:23:42.679Z,2.10
2018-05-07T16:26:08.968Z,2.00
2018-05-07T16:31:32.582Z,2.10
2018-05-07T16:33:58.892Z,1.80
2018-05-07T16:36:25.197Z,2.10
2018-05-07T16:38:52.246Z,2.30
2018-05-07T16:41:18.563Z,2.05
2018-05-07T16:43:44.880Z,2.20
2018-05-07T16:46:11.151Z,2.37
2018-05-07T16:48:37.499Z,2.15
2018-05-07T16:51:04.458Z,2.15
2018-05-07T16:53:30.726Z,2.10
2018-05-07T16:55:57.063Z,2.28
2018-05-07T16:58:23.329Z,2.10
2018-05-07T17:00:49.567Z,2.35
2018-05-07T17:03:15.826Z,2.28
2018-05-07T17:05:42.083Z,2.05
2018-05-07T17:08:08.409Z,2.05
2018-05-07T17:10:35.412Z,2.28
2018-05-07T17:13:01.701Z,2.30
2018-05-07T17:15:27.972Z,1.95
2018-05-07T17:17:54.261Z,2.45
2018-05-07T17:20:20.586Z,1.98
2018-05-07T17:22:46.923Z,1.85
2018-05-07T17:25:13.216Z,2.30
2018-05-07T17:27:39.543Z,2.40
2018-05-07T17:30:05.791Z,2.70
2018-05-07T17:32:32.031Z,2.08
2018-05-07T17:34:59.053Z,2.40
2018-05-07T17:37:25.369Z,2.47
2018-05-07T17:39:51.675Z,2.28
2018-05-07T17:42:18.684Z,2.20
2018-05-07T17:44:45.706Z,2.72
2018-05-07T17:47:11.982Z,2.08
2018-05-07T17:49:38.248Z,2.55
2018-05-07T17:52:04.514Z,2.28
2018-05-07T17:54:31.578Z,2.45
2018-05-07T17:56:57.852Z,2.50
2018-05-07T17:59:24.110Z,2.53
2018-05-07T18:01:50.389Z,2.30
2018-05-07T18:04:17.460Z,2.65
2018-05-07T18:06:43.734Z,2.50
2018-05-07T18:09:10.249Z,3.00
2018-05-07T18:11:36.646Z,3.03
2018-05-07T18:14:03.166Z,3.17
2018-05-07T18:16:29.718Z,2.75
2018-05-07T18:18:56.135Z,3.25
2018-05-07T18:21:23.168Z,3.15
2018-05-07T18:23:49.511Z,3.00
2018-05-07T18:26:16.609Z,3.20
2018-05-07T18:28:42.989Z,3.83
2018-05-07T18:31:09.401Z,2.67
2018-05-07T18:33:35.785Z,2.90
2018-05-07T18:36:02.218Z,3.20
2018-05-07T18:38:28.574Z,3.12
2018-05-07T18:40:54.933Z,3.12
2018-05-07T18:43:21.266Z,3.22
2018-05-07T18:45:48.395Z,2.78
2018-05-07T18:48:14.759Z,3.10
2018-05-07T18:50:41.063Z,3.33
2018-05-07T18:53:07.415Z,3.42
2018-05-07T18:55:34.500Z,3.45
2018-05-07T18:58:01.598Z,3.22
2018-05-07T19:00:28.020Z,3.62
2018-05-07T19:02:54.343Z,3.20
2018-05-07T19:05:21.487Z,4.05
2018-05-07T19:07:47.880Z,3.67
2018-05-07T19:10:15.032Z,3.67
2018-05-07T19:12:41.381Z,3.30
2018-05-07T19:15:07.777Z,3.70
2018-05-07T19:17:34.937Z,3.25
2018-05-07T19:20:02.576Z,3.60
2018-05-07T19:22:29.344Z,4.25
2018-05-07T19:24:56.400Z,3.92
2018-05-07T19:27:22.709Z,4.32
2018-05-07T19:29:49.218Z,4.22
2018-05-07T19:32:15.559Z,4.53
2018-05-07T19:34:42.726Z,4.50
2018-05-07T19:37:09.038Z,4.37
2018-05-07T19:39:35.374Z,4.30
2018-05-07T19:42:03.585Z,3.67
2018-05-07T19:44:29.926Z,4.18
2018-05-07T19:46:56.302Z,3.85
2018-05-07T19:49:22.752Z,3.92
2018-05-07T19:51:50.032Z,3.72
2018-05-07T19:54:16.361Z,4.07
2018-05-07T19:56:42.713Z,3.75
2018-05-07T19:59:09.184Z,3.85
2018-05-07T20:01:35.644Z,3.30
2018-05-07T20:04:01.984Z,3.03
2018-05-07T20:06:28.279Z,3.22
2018-05-07T20:08:54.656Z,3.72
2018-05-07T20:11:21.015Z,3.10
2018-05-07T20:13:47.471Z,2.95
2018-05-07T20:16:14.657Z,3.90
2018-05-07T20:18:40.979Z,3.03
2018-05-07T20:21:08.119Z,2.90
2018-05-07T20:23:35.187Z,2.45
2018-05-07T20:26:01.527Z,2.97
2018-05-07T20:28:28.381Z,3.08
2018-05-07T20:30:55.288Z,3.35
2018-05-07T20:33:21.680Z,2.72
2018-05-07T20:35:48.084Z,2.78
2018-05-07T20:38:14.394Z,3.10
2018-05-07T20:40:41.482Z,3.15
2018-05-07T20:43:07.829Z,3.28
2018-05-07T20:45:34.363Z,3.60
2018-05-07T20:48:00.716Z,3.40
2018-05-07T20:50:29.531Z,2.67
2018-05-07T20:52:58.209Z,3.12
2018-05-07T20:55:26.722Z,3.22
2018-05-07T20:57:54.053Z,3.17
2018-05-07T21:00:21.361Z,3.28
2018-05-07T21:02:47.783Z,2.92
2018-05-07T21:05:14.172Z,3.17
2018-05-07T21:07:41.280Z,4.00
2018-05-07T21:10:07.674Z,3.50
2018-05-07T21:12:34.727Z,3.50
2018-05-07T21:15:01.091Z,2.95
2018-05-07T21:17:28.228Z,3.28
2018-05-07T21:19:55.269Z,3.60
2018-05-07T21:22:22.357Z,3.45
2018-05-07T21:24:59.943Z,3.87
2018-05-07T21:27:26.328Z,3.75
2018-05-07T21:29:52.868Z,3.65
2018-05-07T21:32:20.286Z,4.07
2018-05-07T21:34:49.427Z,3.50
2018-05-07T21:37:15.792Z,3.95
2018-05-07T21:39:42.153Z,4.22
2018-05-07T21:42:08.553Z,4.28
2018-05-07T21:44:35.646Z,4.32
2018-05-07T21:47:02.085Z,4.60
2018-05-07T21:49:29.199Z,4.37
2018-05-07T21:51:56.195Z,4.22
2018-05-07T21:54:22.659Z,3.85
2018-05-07T21:56:49.179Z,4.12
2018-05-07T21:59:16.223Z,4.50
2018-05-07T22:01:42.545Z,4.37
2018-05-07T22:04:09.635Z,5.00
2018-05-07T22:06:36.075Z,4.78
2018-05-07T22:09:02.517Z,4.78
2018-05-07T22:11:28.929Z,5.72
2018-05-07T22:13:55.260Z,4.93
2018-05-07T22:16:22.418Z,5.00
2018-05-07T22:18:49.585Z,5.75
2018-05-07T22:21:16.564Z,5.10
2018-05-07T22:23:43.067Z,5.32
2018-05-07T22:26:09.439Z,5.57
2018-05-07T22:28:35.791Z,5.40
2018-05-07T22:31:02.180Z,5.60
2018-05-07T22:33:28.649Z,5.03
2018-05-07T22:35:55.036Z,5.10
2018-05-07T22:38:21.471Z,5.45
2018-05-07T22:40:48.500Z,5.72
2018-05-07T22:43:14.970Z,5.53
2018-05-07T22:45:41.341Z,5.75
2018-05-07T22:48:17.986Z,5.62
2018-05-07T22:50:45.344Z,6.10
2018-05-07T22:53:11.678Z,5.90
2018-05-07T22:55:37.993Z,5.43
2018-05-07T22:58:04.360Z,6.03
2018-05-07T23:00:30.765Z,5.62
2018-05-07T23:02:57.249Z,5.87
2018-05-07T23:05:24.285Z,5.82
2018-05-07T23:07:50.573Z,5.57
2018-05-07T23:10:17.568Z,6.03
2018-05-07T23:12:44.688Z,5.62
2018-05-07T23:15:11.198Z,5.78
2018-05-07T23:17:37.462Z,6.15
2018-05-07T23:20:03.830Z,5.82
2018-05-07T23:22:30.208Z,5.72
2018-05-07T23:24:56.507Z,5.70
2018-05-07T23:27:22.808Z,5.93
2018-05-07T23:29:49.206Z,6.00
2018-05-07T23:32:15.525Z,6.65
2018-05-07T23:34:41.891Z,6.07
2018-05-07T23:37:09.028Z,6.43
2018-05-07T23:39:35.454Z,6.95
2018-05-07T23:42:01.900Z,6.05
2018-05-07T23:44:30.010Z,6.25
2018-05-07T23:46:58.648Z,6.12
2018-05-07T23:49:25.686Z,5.60
2018-05-07T23:51:52.735Z,7.05
2018-05-07T23:54:19.192Z,5.80
2018-05-07T23:56:46.278Z,5.65
2018-05-07T23:59:13.411Z,6.35
